Main page
METAR-TAF:

METAR-TAF

Airports :

Spaa

Tomaszów Mazowiecki, Poland

latitude: 51-35-04N, longitude: 020-05-52E, elevation: 174 m

METAR: missing

Time: 22:20 (21:20 UTC)

Forecast

The report was made 10 hours and 20 minutes ago, at 11:00 UTC
Forecast valid from 17 at 12 UTC to 17 at 21 UTC
Wind 6 kt from the Southeast
Visibility: 1500 m
Scattered clouds at a height of 400 ft
Broken clouds at a height of 1000 ft
mist
Temporary
from 17 at 12 UTC to 17 at 21 UTC
Visibility: 1000 m
Broken clouds at a height of 400 ft

TAF: EPTM 171100Z 1712/1721 14006KT 1500 BR SCT004 BKN010 TEMPO 1712/1721 1000 BKN004

Weather observations and forecasts of more than 4000 airports (METAR and TAF reports).

The available stations are represented by yellow and red dots on the map.

Hover mouse over dot to see the name of the station.

Then click to see weather observations and forecasts.

To change the map : click on the green buttons with a black cross to zoom in, on the green button with a dash to zoom out, or on the green arrows for adjacent maps.


METAR-TAF: